Time;durP1;ratioP1;P1;durP2;ratioP2;P2;SDS_P1;SDS_P2;PMS_P1;PMS_P2;Temp;Humidity;BMP_temperature;BMP_pressure;BME280_temperature;BME280_humidity;BME280_pressure;Samples;Min_cycle;Max_cycle;Signal;HPM_P1;HPM_P2
2023/08/02 00:00:16;;;;;;;0.70;0.70;;;;;;;;;;6188823;28;20683;-72
2023/08/02 00:03:17;;;;;;;1.17;0.83;;;;;;;;;;6190283;28;20048;-70
2023/08/02 00:06:17;;;;;;;1.00;0.90;;;;;;;;;;6200825;28;20057;-71
2023/08/02 00:09:17;;;;;;;1.20;1.10;;;;;;;;;;6195910;28;20038;-69
2023/08/02 00:12:18;;;;;;;0.80;0.80;;;;;;;;;;6196579;28;20026;-69
2023/08/02 00:15:18;;;;;;;1.17;0.90;;;;;;;;;;6195894;28;20026;-70
2023/08/02 00:18:19;;;;;;;1.30;0.80;;;;;;;;;;6191837;28;20548;-69
2023/08/02 00:21:19;;;;;;;0.70;0.70;;;;;;;;;;6190196;28;20062;-69
2023/08/02 00:24:19;;;;;;;0.68;0.60;;;;;;;;;;6196107;28;20038;-69
2023/08/02 00:27:19;;;;;;;1.00;0.80;;;;;;;;;;6194224;28;20056;-72
2023/08/02 00:30:19;;;;;;;0.50;0.50;;;;;;;;;;6192497;28;20051;-68
2023/08/02 00:33:19;;;;;;;0.68;0.68;;;;;;;;;;6193264;28;20394;-68
2023/08/02 00:36:20;;;;;;;1.40;0.73;;;;;;;;;;6192385;28;20034;-71
2023/08/02 00:39:20;;;;;;;0.63;0.60;;;;;;;;;;6197651;28;20038;-68
2023/08/02 00:42:21;;;;;;;1.43;0.70;;;;;;;;;;6196677;28;20049;-68
2023/08/02 00:45:21;;;;;;;0.90;0.60;;;;;;;;;;5844985;28;10001093;-68
2023/08/02 00:48:22;;;;;;;0.60;0.60;;;;;;;;;;6188240;28;20079;-70
2023/08/02 00:51:22;;;;;;;1.08;0.75;;;;;;;;;;6188694;28;20518;-67
2023/08/02 00:54:22;;;;;;;1.00;0.70;;;;;;;;;;6192318;28;20037;-68
2023/08/02 00:57:23;;;;;;;0.83;0.83;;;;;;;;;;6187099;28;20034;-67
2023/08/02 01:00:23;;;;;;;1.00;0.70;;;;;;;;;;6193440;28;20542;-67
2023/08/02 01:03:24;;;;;;;0.90;0.60;;;;;;;;;;6192797;28;20045;-66
2023/08/02 01:06:41;;;;;;;0.70;0.70;;;;;;;;;;6195677;28;20057;-65
2023/08/02 01:10:08;;;;;;;1.17;0.75;;;;;;;;;;6195387;28;20031;-64
2023/08/02 01:13:10;;;;;;;0.98;0.88;;;;;;;;;;6195309;28;20048;-64
2023/08/02 01:16:10;;;;;;;0.70;0.60;;;;;;;;;;6193402;28;20121;-64
2023/08/02 01:19:11;;;;;;;0.70;0.70;;;;;;;;;;6192767;28;20428;-64
2023/08/02 01:22:11;;;;;;;0.88;0.60;;;;;;;;;;6194022;28;20392;-63
2023/08/02 01:25:12;;;;;;;0.90;0.70;;;;;;;;;;6196929;28;20042;-63
2023/08/02 01:28:17;;;;;;;0.85;0.77;;;;;;;;;;6200105;28;20030;-65
2023/08/02 01:31:18;;;;;;;0.75;0.73;;;;;;;;;;6194452;28;20700;-65
2023/08/02 01:34:18;;;;;;;0.73;0.65;;;;;;;;;;6205941;28;20022;-65
2023/08/02 01:37:19;;;;;;;1.15;0.73;;;;;;;;;;6196738;28;20039;-65
2023/08/02 01:40:19;;;;;;;1.20;0.90;;;;;;;;;;6194526;28;20085;-64
2023/08/02 01:43:19;;;;;;;0.80;0.80;;;;;;;;;;6205702;28;20061;-64
2023/08/02 01:46:19;;;;;;;2.20;0.67;;;;;;;;;;6197957;28;20077;-64
2023/08/02 01:49:21;;;;;;;1.67;0.73;;;;;;;;;;6192551;28;20030;-64
2023/08/02 01:52:21;;;;;;;1.30;0.90;;;;;;;;;;6190977;28;20034;-64
2023/08/02 01:55:22;;;;;;;0.80;0.80;;;;;;;;;;6199586;28;20022;-66
2023/08/02 01:58:22;;;;;;;1.47;0.90;;;;;;;;;;6211094;28;20498;-63
2023/08/02 02:01:22;;;;;;;1.23;0.97;;;;;;;;;;6205375;28;20034;-63
2023/08/02 02:04:23;;;;;;;0.93;0.70;;;;;;;;;;6191802;28;20034;-64
2023/08/02 02:07:23;;;;;;;0.68;0.63;;;;;;;;;;6193684;28;20514;-64
2023/08/02 02:10:23;;;;;;;1.00;0.90;;;;;;;;;;6213257;28;20138;-64
2023/08/02 02:13:24;;;;;;;0.60;0.50;;;;;;;;;;6213839;28;20073;-64
2023/08/02 02:16:24;;;;;;;0.90;0.75;;;;;;;;;;6191528;28;20133;-64
2023/08/02 02:19:24;;;;;;;0.60;0.50;;;;;;;;;;6205404;28;20505;-63
2023/08/02 02:22:25;;;;;;;0.60;0.60;;;;;;;;;;6194766;28;20356;-64
2023/08/02 02:25:25;;;;;;;2.10;0.50;;;;;;;;;;6196867;28;20046;-64
2023/08/02 02:28:25;;;;;;;0.60;0.60;;;;;;;;;;6215451;28;20038;-64
2023/08/02 02:31:25;;;;;;;0.60;0.60;;;;;;;;;;6210773;28;20121;-64
2023/08/02 02:34:25;;;;;;;0.50;0.50;;;;;;;;;;6209118;28;20115;-64
2023/08/02 02:37:26;;;;;;;0.50;0.43;;;;;;;;;;6194651;28;20034;-64
2023/08/02 02:40:26;;;;;;;0.30;0.30;;;;;;;;;;6199341;28;20539;-64
2023/08/02 02:43:26;;;;;;;0.60;0.50;;;;;;;;;;6199270;28;20061;-64
2023/08/02 02:46:26;;;;;;;1.48;0.75;;;;;;;;;;6195057;28;20038;-64
2023/08/02 02:49:27;;;;;;;0.57;0.50;;;;;;;;;;6197082;28;20083;-63
2023/08/02 02:52:27;;;;;;;0.40;0.40;;;;;;;;;;6198004;28;20107;-64
2023/08/02 02:55:27;;;;;;;1.40;0.55;;;;;;;;;;6195646;28;20026;-65
2023/08/02 02:58:28;;;;;;;0.40;0.40;;;;;;;;;;6196978;28;20070;-65
2023/08/02 03:01:28;;;;;;;0.47;0.47;;;;;;;;;;6196778;28;20435;-63
2023/08/02 03:04:28;;;;;;;0.50;0.50;;;;;;;;;;6196174;28;20034;-63
2023/08/02 03:07:28;;;;;;;0.60;0.50;;;;;;;;;;6196234;28;20497;-62
2023/08/02 03:10:29;;;;;;;0.67;0.63;;;;;;;;;;6199409;28;20057;-64
2023/08/02 03:13:29;;;;;;;0.70;0.50;;;;;;;;;;6193259;28;20030;-64
2023/08/02 03:16:29;;;;;;;0.70;0.70;;;;;;;;;;6190372;28;20514;-66
2023/08/02 03:19:29;;;;;;;0.70;0.70;;;;;;;;;;6197701;28;20046;-63
2023/08/02 03:22:29;;;;;;;1.53;0.43;;;;;;;;;;6198014;28;20045;-62
2023/08/02 03:25:30;;;;;;;0.40;0.40;;;;;;;;;;6197149;28;20586;-64
2023/08/02 03:28:30;;;;;;;0.73;0.60;;;;;;;;;;6195482;28;20056;-63
2023/08/02 03:31:30;;;;;;;1.10;0.70;;;;;;;;;;6194840;28;20036;-64
2023/08/02 03:34:30;;;;;;;1.30;0.70;;;;;;;;;;6197431;28;20042;-63
2023/08/02 03:37:31;;;;;;;0.50;0.50;;;;;;;;;;6196564;28;20038;-63
2023/08/02 03:40:31;;;;;;;0.43;0.40;;;;;;;;;;6198426;28;20034;-64
2023/08/02 03:43:31;;;;;;;0.67;0.57;;;;;;;;;;6202505;28;20041;-65
2023/08/02 03:46:31;;;;;;;1.37;0.57;;;;;;;;;;6189531;28;20652;-64
2023/08/02 03:49:31;;;;;;;0.63;0.60;;;;;;;;;;6197444;28;20038;-63
2023/08/02 03:52:32;;;;;;;0.80;0.60;;;;;;;;;;6197170;28;20042;-63
2023/08/02 03:55:32;;;;;;;0.80;0.80;;;;;;;;;;6194503;28;20042;-64
2023/08/02 03:58:32;;;;;;;1.50;1.25;;;;;;;;;;6196697;28;20112;-63
2023/08/02 04:01:32;;;;;;;3.50;1.83;;;;;;;;;;6192400;28;20026;-64
2023/08/02 04:04:34;;;;;;;2.53;1.48;;;;;;;;;;6195891;28;20061;-64
2023/08/02 04:07:34;;;;;;;1.90;1.33;;;;;;;;;;6182566;28;20027;-64
2023/08/02 04:10:36;;;;;;;1.23;0.90;;;;;;;;;;6178311;28;20031;-63
2023/08/02 04:13:36;;;;;;;1.00;0.90;;;;;;;;;;6197417;28;20575;-64
2023/08/02 04:16:36;;;;;;;1.10;0.90;;;;;;;;;;6193581;28;20079;-65
2023/08/02 04:19:36;;;;;;;0.90;0.60;;;;;;;;;;6186155;28;20096;-63
2023/08/02 04:22:37;;;;;;;1.17;0.90;;;;;;;;;;6195510;28;20045;-64
2023/08/02 04:25:37;;;;;;;0.63;0.60;;;;;;;;;;6213517;28;20034;-63
2023/08/02 04:28:37;;;;;;;0.70;0.63;;;;;;;;;;6202181;28;20089;-62
2023/08/02 04:31:37;;;;;;;0.90;0.60;;;;;;;;;;6194611;28;20331;-63
2023/08/02 04:34:38;;;;;;;0.50;0.50;;;;;;;;;;6190835;28;20038;-63
2023/08/02 04:37:38;;;;;;;0.50;0.43;;;;;;;;;;6205730;28;20116;-63
2023/08/02 04:40:38;;;;;;;0.87;0.67;;;;;;;;;;6200917;28;20169;-64
2023/08/02 04:43:38;;;;;;;0.95;0.63;;;;;;;;;;6206245;28;20542;-63
2023/08/02 04:46:39;;;;;;;1.43;0.60;;;;;;;;;;6200922;28;20449;-63
2023/08/02 04:49:39;;;;;;;0.87;0.70;;;;;;;;;;6212299;28;20040;-63
2023/08/02 04:52:39;;;;;;;1.47;0.60;;;;;;;;;;6192895;28;20120;-63
2023/08/02 04:55:40;;;;;;;0.90;0.68;;;;;;;;;;6192696;28;20045;-65
2023/08/02 04:58:41;;;;;;;1.70;0.65;;;;;;;;;;6191282;28;20465;-64
2023/08/02 05:01:41;;;;;;;0.80;0.80;;;;;;;;;;6191876;28;20030;-63
2023/08/02 05:04:41;;;;;;;0.63;0.63;;;;;;;;;;6197021;28;20266;-60
2023/08/02 05:07:41;;;;;;;1.93;0.90;;;;;;;;;;5846382;28;9999891;-59
2023/08/02 05:10:42;;;;;;;1.10;0.80;;;;;;;;;;6189829;28;20041;-59
2023/08/02 05:13:42;;;;;;;2.83;1.10;;;;;;;;;;6192581;28;20034;-59
2023/08/02 05:16:42;;;;;;;0.70;0.70;;;;;;;;;;6187765;28;20094;-59
2023/08/02 05:19:42;;;;;;;0.80;0.80;;;;;;;;;;6192461;28;20033;-58
2023/08/02 05:22:43;;;;;;;1.23;0.75;;;;;;;;;;6187889;28;20041;-58
2023/08/02 05:25:43;;;;;;;0.80;0.77;;;;;;;;;;6186460;28;20462;-60
2023/08/02 05:28:44;;;;;;;1.83;0.90;;;;;;;;;;6188667;28;20450;-58
2023/08/02 05:31:44;;;;;;;1.20;1.10;;;;;;;;;;6183882;28;20352;-57
2023/08/02 05:34:44;;;;;;;1.50;1.40;;;;;;;;;;6190847;28;20064;-59
2023/08/02 05:37:44;;;;;;;1.33;1.23;;;;;;;;;;6192075;28;20517;-55
2023/08/02 05:40:45;;;;;;;1.53;1.43;;;;;;;;;;6186962;28;20041;-55
2023/08/02 05:43:45;;;;;;;1.17;1.07;;;;;;;;;;6187982;28;20034;-57
2023/08/02 05:46:45;;;;;;;1.30;1.20;;;;;;;;;;6189293;28;20042;-57
2023/08/02 05:49:45;;;;;;;1.83;1.70;;;;;;;;;;6194186;28;20041;-56
2023/08/02 05:52:45;;;;;;;1.63;1.50;;;;;;;;;;6191349;28;20046;-53
2023/08/02 05:55:45;;;;;;;;;;;;;;;;;;6186605;28;20561;-55
2023/08/02 05:58:46;;;;;;;1.20;1.00;;;;;;;;;;6185249;28;20009;-54
2023/08/02 06:01:46;;;;;;;;;;;;;;;;;;6189370;28;20037;-59
2023/08/02 06:04:46;;;;;;;1.20;1.05;;;;;;;;;;6193441;28;19922;-61
2023/08/02 06:07:46;;;;;;;1.13;1.03;;;;;;;;;;6195462;28;20100;-57
2023/08/02 06:10:46;;;;;;;1.20;1.10;;;;;;;;;;6192479;28;20956;-56
2023/08/02 06:13:47;;;;;;;;;;;;;;;;;;6197466;28;20034;-55
2023/08/02 06:16:47;;;;;;;2.10;1.20;;;;;;;;;;6194983;28;19928;-59
2023/08/02 06:19:47;;;;;;;1.00;1.00;;;;;;;;;;6188393;28;20050;-57
2023/08/02 06:22:47;;;;;;;;;;;;;;;;;;6190565;28;20108;-60
2023/08/02 06:25:47;;;;;;;0.88;0.80;;;;;;;;;;6197228;28;19968;-60
2023/08/02 06:28:48;;;;;;;1.10;1.00;;;;;;;;;;6189115;28;20198;-57
2023/08/02 06:31:48;;;;;;;;;;;;;;;;;;6188493;28;20044;-59
2023/08/02 06:34:48;;;;;;;1.08;0.80;;;;;;;;;;6190062;28;20007;-59
2023/08/02 06:37:48;;;;;;;;;;;;;;;;;;6194669;28;20095;-61
2023/08/02 06:40:48;;;;;;;1.10;0.75;;;;;;;;;;6189897;28;19947;-61
2023/08/02 06:43:48;;;;;;;;;;;;;;;;;;6191565;28;20065;-59
2023/08/02 06:46:49;;;;;;;1.70;0.88;;;;;;;;;;6191403;28;20498;-60
2023/08/02 06:49:49;;;;;;;0.80;0.77;;;;;;;;;;6187487;28;20065;-62
2023/08/02 06:52:49;;;;;;;;;;;;;;;;;;6197729;28;20375;-60
2023/08/02 06:55:49;;;;;;;1.30;0.93;;;;;;;;;;6201698;28;19944;-61
2023/08/02 06:58:49;;;;;;;;;;;;;;;;;;6197648;28;20395;-61
2023/08/02 07:01:49;;;;;;;1.38;0.70;;;;;;;;;;6191876;28;19921;-59
2023/08/02 07:04:50;;;;;;;1.00;0.90;;;;;;;;;;6187219;28;20062;-60
2023/08/02 07:07:50;;;;;;;1.03;0.93;;;;;;;;;;6190623;28;20285;-59
2023/08/02 07:10:50;;;;;;;1.03;0.90;;;;;;;;;;6162483;28;21445;-61
2023/08/02 07:13:50;;;;;;;0.87;0.87;;;;;;;;;;6163448;28;20064;-63
2023/08/02 07:16:51;;;;;;;1.00;0.70;;;;;;;;;;6166929;28;20045;-61
2023/08/02 07:19:51;;;;;;;1.17;0.95;;;;;;;;;;6188488;28;20045;-60
2023/08/02 07:22:51;;;;;;;1.20;1.10;;;;;;;;;;6190064;28;20178;-62
2023/08/02 07:25:51;;;;;;;1.20;1.10;;;;;;;;;;6193433;28;20037;-60
2023/08/02 07:28:51;;;;;;;1.13;0.90;;;;;;;;;;5839288;28;9999938;-60
2023/08/02 07:31:52;;;;;;;1.10;1.00;;;;;;;;;;6190870;28;20578;-61
2023/08/02 07:34:52;;;;;;;1.10;1.00;;;;;;;;;;6198087;28;20769;-61
2023/08/02 07:37:52;;;;;;;0.90;0.90;;;;;;;;;;6195601;28;20125;-62
2023/08/02 07:40:52;;;;;;;1.03;0.83;;;;;;;;;;6199053;28;20270;-60
2023/08/02 07:43:53;;;;;;;1.43;1.20;;;;;;;;;;6197409;28;20057;-61
2023/08/02 07:46:53;;;;;;;1.23;0.80;;;;;;;;;;6193760;28;20293;-61
2023/08/02 07:49:53;;;;;;;1.40;0.90;;;;;;;;;;6196651;28;20128;-62
2023/08/02 07:52:53;;;;;;;1.17;0.90;;;;;;;;;;6197830;28;20265;-62
2023/08/02 07:56:03;;;;;;;1.50;1.10;;;;;;;;;;6193851;28;20066;-62
2023/08/02 07:59:03;;;;;;;1.15;0.98;;;;;;;;;;6192405;28;20026;-61
2023/08/02 08:02:03;;;;;;;1.00;0.90;;;;;;;;;;6188694;28;20407;-62
2023/08/02 08:05:04;;;;;;;2.78;1.02;;;;;;;;;;6194903;28;20038;-61
2023/08/02 08:08:04;;;;;;;1.27;1.00;;;;;;;;;;6192334;28;20034;-61
2023/08/02 08:11:04;;;;;;;1.23;0.90;;;;;;;;;;6194383;28;20148;-62
2023/08/02 08:14:04;;;;;;;1.07;0.90;;;;;;;;;;6197797;28;20046;-63
2023/08/02 08:17:05;;;;;;;0.90;0.80;;;;;;;;;;6193792;28;20288;-62
2023/08/02 08:20:05;;;;;;;1.63;0.77;;;;;;;;;;6194303;28;20038;-65
2023/08/02 08:23:05;;;;;;;1.80;0.95;;;;;;;;;;6194958;28;20285;-64
2023/08/02 08:26:12;;;;;;;1.80;1.10;;;;;;;;;;6196940;28;20058;-63
2023/08/02 08:29:12;;;;;;;1.40;1.05;;;;;;;;;;6211851;28;20121;-65
2023/08/02 08:32:12;;;;;;;0.93;0.90;;;;;;;;;;6192038;28;20479;-64
2023/08/02 08:35:12;;;;;;;0.93;0.90;;;;;;;;;;6197206;28;20776;-64
2023/08/02 08:38:13;;;;;;;1.00;0.90;;;;;;;;;;6196656;28;20038;-67
2023/08/02 08:41:14;;;;;;;1.07;0.90;;;;;;;;;;6210430;28;20784;-67
2023/08/02 08:44:14;;;;;;;1.25;0.85;;;;;;;;;;6196253;28;20077;-64
2023/08/02 08:47:16;;;;;;;2.00;0.80;;;;;;;;;;6193979;28;20057;-63
2023/08/02 08:50:17;;;;;;;1.25;1.10;;;;;;;;;;6195460;28;20046;-63
2023/08/02 08:53:22;;;;;;;0.95;0.88;;;;;;;;;;6193779;28;20045;-62
2023/08/02 08:56:25;;;;;;;1.15;0.80;;;;;;;;;;6191419;28;20121;-68
2023/08/02 08:59:26;;;;;;;1.50;0.90;;;;;;;;;;6195438;28;20478;-63
2023/08/02 09:02:26;;;;;;;1.30;1.10;;;;;;;;;;6203423;28;20038;-63
2023/08/02 09:05:28;;;;;;;1.02;0.90;;;;;;;;;;6193605;28;20762;-63
2023/08/02 09:08:28;;;;;;;0.80;0.80;;;;;;;;;;6195182;28;20026;-64
2023/08/02 09:11:29;;;;;;;0.88;0.80;;;;;;;;;;6199917;28;20034;-67
2023/08/02 09:14:29;;;;;;;2.83;1.27;;;;;;;;;;6195197;28;20426;-68
2023/08/02 09:17:44;;;;;;;1.02;0.93;;;;;;;;;;6192847;28;20343;-64
2023/08/02 09:20:51;;;;;;;1.30;1.20;;;;;;;;;;6193622;28;20027;-64
2023/08/02 09:23:58;;;;;;;1.38;1.27;;;;;;;;;;6194744;28;20042;-63
2023/08/02 09:26:58;;;;;;;1.60;1.38;;;;;;;;;;6193999;28;20035;-63
2023/08/02 09:29:58;;;;;;;1.58;1.20;;;;;;;;;;5844658;28;10000127;-63
2023/08/02 09:32:59;;;;;;;1.70;1.60;;;;;;;;;;6190926;28;20042;-62
2023/08/02 09:36:00;;;;;;;1.00;1.00;;;;;;;;;;6192553;28;20033;-61
2023/08/02 09:39:09;;;;;;;1.30;1.20;;;;;;;;;;6195287;28;20038;-62
2023/08/02 09:42:13;;;;;;;1.38;1.27;;;;;;;;;;6196003;28;20037;-61
2023/08/02 09:45:13;;;;;;;1.58;1.20;;;;;;;;;;6191105;28;20057;-63
2023/08/02 09:48:14;;;;;;;1.00;1.00;;;;;;;;;;6193826;28;20034;-64
2023/08/02 09:51:14;;;;;;;2.57;1.30;;;;;;;;;;6195811;28;20042;-62
2023/08/02 09:54:14;;;;;;;2.57;1.33;;;;;;;;;;6195608;28;20516;-62
2023/08/02 09:57:15;;;;;;;1.27;1.17;;;;;;;;;;6195528;28;20049;-63
2023/08/02 10:00:17;;;;;;;4.03;1.30;;;;;;;;;;6195722;28;20422;-62
2023/08/02 10:03:17;;;;;;;3.25;1.50;;;;;;;;;;6193973;28;20034;-62
2023/08/02 10:06:18;;;;;;;1.17;1.08;;;;;;;;;;6195818;28;20443;-63
2023/08/02 10:09:19;;;;;;;2.63;1.38;;;;;;;;;;6194664;28;20137;-61
2023/08/02 10:12:20;;;;;;;1.55;1.00;;;;;;;;;;6195292;28;20487;-61
2023/08/02 10:15:20;;;;;;;2.38;1.70;;;;;;;;;;6195477;28;20243;-60
2023/08/02 10:18:21;;;;;;;1.33;1.23;;;;;;;;;;6192128;28;20065;-61
2023/08/02 10:21:21;;;;;;;1.83;1.30;;;;;;;;;;6195320;28;20045;-61
2023/08/02 10:24:24;;;;;;;1.23;0.97;;;;;;;;;;6195833;28;20486;-61
2023/08/02 10:27:24;;;;;;;1.65;1.10;;;;;;;;;;6193830;28;20042;-62
2023/08/02 10:30:25;;;;;;;1.73;1.15;;;;;;;;;;6195641;28;20108;-62
2023/08/02 10:33:27;;;;;;;1.08;0.98;;;;;;;;;;6192623;28;20038;-62
2023/08/02 10:36:27;;;;;;;1.20;1.10;;;;;;;;;;6192519;28;20108;-62
2023/08/02 10:39:45;;;;;;;1.30;1.20;;;;;;;;;;6196378;28;20050;-62
2023/08/02 10:43:01;;;;;;;1.77;1.05;;;;;;;;;;6195416;28;20034;-61
2023/08/02 10:46:14;;;;;;;1.75;1.00;;;;;;;;;;6193965;28;20057;-62
2023/08/02 10:49:14;;;;;;;2.38;1.10;;;;;;;;;;6195082;28;20411;-63
2023/08/02 10:52:41;;;;;;;0.80;0.80;;;;;;;;;;6205661;28;20144;-63
2023/08/02 10:55:59;;;;;;;1.23;0.90;;;;;;;;;;6196309;28;20049;-62
2023/08/02 10:59:00;;;;;;;0.90;0.90;;;;;;;;;;6199549;28;20479;-62
2023/08/02 11:02:01;;;;;;;1.03;0.97;;;;;;;;;;6196685;28;20046;-62
2023/08/02 11:05:01;;;;;;;1.33;1.23;;;;;;;;;;6200510;28;20049;-65
2023/08/02 11:08:01;;;;;;;2.03;1.40;;;;;;;;;;6196826;28;20026;-63
2023/08/02 11:11:01;;;;;;;1.47;0.90;;;;;;;;;;6200475;28;20096;-62
2023/08/02 11:14:01;;;;;;;1.75;1.10;;;;;;;;;;6200732;28;20272;-62
2023/08/02 11:17:02;;;;;;;1.10;1.00;;;;;;;;;;6196907;28;20042;-62
2023/08/02 11:20:04;;;;;;;2.25;1.02;;;;;;;;;;6199546;28;20064;-63
2023/08/02 11:23:20;;;;;;;3.50;1.20;;;;;;;;;;6199344;28;20151;-62
2023/08/02 11:26:21;;;;;;;0.95;0.90;;;;;;;;;;6213018;28;20073;-61
2023/08/02 11:29:21;;;;;;;1.23;1.13;;;;;;;;;;6199111;28;20038;-62
2023/08/02 11:32:22;;;;;;;0.85;0.85;;;;;;;;;;6196112;28;20161;-62
2023/08/02 11:35:22;;;;;;;2.13;1.17;;;;;;;;;;6199619;28;20170;-62
2023/08/02 11:38:22;;;;;;;1.53;1.00;;;;;;;;;;6198836;28;20033;-63
2023/08/02 11:41:23;;;;;;;1.20;1.10;;;;;;;;;;6196605;28;20336;-62
2023/08/02 11:44:23;;;;;;;1.05;1.05;;;;;;;;;;6197228;28;20034;-65
2023/08/02 11:47:33;;;;;;;2.00;1.10;;;;;;;;;;6193797;28;20061;-64
2023/08/02 11:50:34;;;;;;;1.00;1.00;;;;;;;;;;6186737;28;20069;-64
2023/08/02 11:53:35;;;;;;;0.95;0.95;;;;;;;;;;6194875;28;20037;-69
2023/08/02 11:56:35;;;;;;;1.38;1.10;;;;;;;;;;6196478;28;20431;-63
2023/08/02 11:59:36;;;;;;;0.90;0.90;;;;;;;;;;6192006;28;20070;-64
2023/08/02 12:02:36;;;;;;;0.83;0.83;;;;;;;;;;6187102;28;20145;-63
2023/08/02 12:05:36;;;;;;;0.73;0.73;;;;;;;;;;6191633;28;20045;-62
2023/08/02 12:08:36;;;;;;;0.70;0.70;;;;;;;;;;6195127;28;20034;-62
2023/08/02 12:11:37;;;;;;;0.83;0.83;;;;;;;;;;6197621;28;20529;-62
2023/08/02 12:14:37;;;;;;;1.10;1.00;;;;;;;;;;6197213;28;20112;-61
2023/08/02 12:17:37;;;;;;;2.60;0.80;;;;;;;;;;6194300;28;20070;-62
2023/08/02 12:20:38;;;;;;;0.97;0.97;;;;;;;;;;6198720;28;20164;-61
2023/08/02 12:23:38;;;;;;;1.30;0.80;;;;;;;;;;6197179;28;20031;-61
2023/08/02 12:26:39;;;;;;;0.90;0.90;;;;;;;;;;6221735;28;20488;-61
2023/08/02 12:29:39;;;;;;;0.68;0.68;;;;;;;;;;6220444;28;20049;-61
2023/08/02 12:32:39;;;;;;;0.88;0.88;;;;;;;;;;6198482;28;20022;-61
2023/08/02 12:35:42;;;;;;;0.80;0.80;;;;;;;;;;6197396;28;20037;-62
2023/08/02 12:38:42;;;;;;;1.35;1.08;;;;;;;;;;6197208;28;20049;-61
2023/08/02 12:41:42;;;;;;;0.90;0.90;;;;;;;;;;6191657;28;20062;-62
2023/08/02 12:44:42;;;;;;;1.25;0.95;;;;;;;;;;6196725;28;20046;-61
2023/08/02 12:47:42;;;;;;;1.20;1.10;;;;;;;;;;6193315;28;20050;-64
2023/08/02 12:50:43;;;;;;;1.20;1.10;;;;;;;;;;6194482;28;20073;-61
2023/08/02 12:53:43;;;;;;;0.87;0.87;;;;;;;;;;6194283;28;20031;-61
2023/08/02 12:56:43;;;;;;;0.90;0.90;;;;;;;;;;6196500;28;20026;-61
2023/08/02 12:59:43;;;;;;;0.80;0.80;;;;;;;;;;6194641;28;20030;-61
2023/08/02 13:02:44;;;;;;;1.07;0.90;;;;;;;;;;6193288;28;20049;-66
2023/08/02 13:05:44;;;;;;;2.23;1.00;;;;;;;;;;6197251;28;20038;-61
2023/08/02 13:08:44;;;;;;;0.90;0.90;;;;;;;;;;6195204;28;20086;-62
2023/08/02 13:11:44;;;;;;;0.90;0.90;;;;;;;;;;6195317;28;20022;-62
2023/08/02 13:14:44;;;;;;;1.10;1.00;;;;;;;;;;6195082;28;20049;-60
2023/08/02 13:17:47;;;;;;;0.90;0.80;;;;;;;;;;6192311;28;20488;-63
2023/08/02 13:20:47;;;;;;;1.40;0.90;;;;;;;;;;6197292;28;20113;-61
2023/08/02 13:23:48;;;;;;;1.57;1.10;;;;;;;;;;6193991;28;20033;-63
2023/08/02 13:26:48;;;;;;;0.90;0.90;;;;;;;;;;6194009;28;20049;-62
2023/08/02 13:29:48;;;;;;;2.30;1.17;;;;;;;;;;6194949;28;20067;-61
2023/08/02 13:32:48;;;;;;;1.10;1.08;;;;;;;;;;6193351;28;20616;-61
2023/08/02 13:35:48;;;;;;;1.43;0.90;;;;;;;;;;6196571;28;20037;-61
2023/08/02 13:38:49;;;;;;;0.90;0.90;;;;;;;;;;6193018;28;20102;-63
2023/08/02 13:41:49;;;;;;;2.30;1.10;;;;;;;;;;6194470;28;20506;-61
2023/08/02 13:44:50;;;;;;;0.97;0.97;;;;;;;;;;6194826;28;20046;-61
2023/08/02 13:47:50;;;;;;;0.85;0.85;;;;;;;;;;6191056;28;20046;-61
2023/08/02 13:50:50;;;;;;;1.03;0.93;;;;;;;;;;6194730;28;20042;-61
2023/08/02 13:53:50;;;;;;;1.20;1.07;;;;;;;;;;6194220;28;20180;-60
2023/08/02 13:56:50;;;;;;;0.80;0.80;;;;;;;;;;6190594;28;20124;-62
2023/08/02 13:59:51;;;;;;;1.05;0.98;;;;;;;;;;6195297;28;20038;-61
2023/08/02 14:02:51;;;;;;;0.80;0.80;;;;;;;;;;6190278;28;20073;-62
2023/08/02 14:05:51;;;;;;;1.83;0.97;;;;;;;;;;6195285;28;20459;-61
2023/08/02 14:08:51;;;;;;;0.87;0.87;;;;;;;;;;6195151;28;20030;-61
2023/08/02 14:11:51;;;;;;;1.30;0.90;;;;;;;;;;6193270;28;20149;-62
2023/08/02 14:14:52;;;;;;;0.90;0.90;;;;;;;;;;6194112;28;20084;-62
2023/08/02 14:17:52;;;;;;;0.90;0.90;;;;;;;;;;6187971;28;20505;-66
2023/08/02 14:20:52;;;;;;;1.90;1.00;;;;;;;;;;6193486;28;20034;-63
2023/08/02 14:23:52;;;;;;;1.00;0.97;;;;;;;;;;6191275;28;20045;-62
2023/08/02 14:26:53;;;;;;;1.17;1.07;;;;;;;;;;6191230;28;20053;-61
2023/08/02 14:29:53;;;;;;;1.53;1.40;;;;;;;;;;6193966;28;20132;-61
2023/08/02 14:32:53;;;;;;;2.10;1.10;;;;;;;;;;6191977;28;20117;-65
2023/08/02 14:35:54;;;;;;;1.27;1.07;;;;;;;;;;6201034;28;20195;-62
2023/08/02 14:38:54;;;;;;;1.50;1.23;;;;;;;;;;6199518;28;20034;-62
2023/08/02 14:41:54;;;;;;;0.70;0.70;;;;;;;;;;6198029;28;20033;-64
2023/08/02 14:44:54;;;;;;;3.03;1.20;;;;;;;;;;6199783;28;20089;-63
2023/08/02 14:47:55;;;;;;;0.90;0.90;;;;;;;;;;6196686;28;20101;-62
2023/08/02 14:50:56;;;;;;;1.60;1.00;;;;;;;;;;6205328;28;20042;-64
2023/08/02 14:53:56;;;;;;;1.10;1.00;;;;;;;;;;6199508;28;20034;-60
2023/08/02 14:56:56;;;;;;;1.23;1.13;;;;;;;;;;6197168;28;20440;-60
2023/08/02 14:59:56;;;;;;;0.80;0.80;;;;;;;;;;6198834;28;20038;-61
2023/08/02 15:02:56;;;;;;;3.27;1.00;;;;;;;;;;6196636;28;20148;-63
2023/08/02 15:05:57;;;;;;;0.90;0.90;;;;;;;;;;6190224;28;20073;-64
2023/08/02 15:08:57;;;;;;;1.67;0.73;;;;;;;;;;6194973;28;20044;-62
2023/08/02 15:11:58;;;;;;;0.70;0.70;;;;;;;;;;6189860;28;20069;-61
2023/08/02 15:14:58;;;;;;;1.00;0.75;;;;;;;;;;6197935;28;20379;-62
2023/08/02 15:17:58;;;;;;;0.80;0.80;;;;;;;;;;6192135;28;20029;-62
2023/08/02 15:20:58;;;;;;;0.80;0.80;;;;;;;;;;6195960;28;20232;-62
2023/08/02 15:23:58;;;;;;;0.80;0.63;;;;;;;;;;6196649;28;20046;-64
2023/08/02 15:26:59;;;;;;;1.63;0.80;;;;;;;;;;6185725;28;20135;-62
2023/08/02 15:29:59;;;;;;;2.07;0.83;;;;;;;;;;6197702;28;20038;-61
2023/08/02 15:32:59;;;;;;;0.73;0.73;;;;;;;;;;6197705;28;20042;-61
2023/08/02 15:35:59;;;;;;;1.00;0.90;;;;;;;;;;6194987;28;20057;-61
2023/08/02 15:39:00;;;;;;;0.83;0.80;;;;;;;;;;6187347;28;20038;-62
2023/08/02 15:42:00;;;;;;;0.70;0.70;;;;;;;;;;6216969;28;20043;-63
2023/08/02 15:45:00;;;;;;;1.20;0.80;;;;;;;;;;6210850;28;20108;-62
2023/08/02 15:48:00;;;;;;;0.97;0.70;;;;;;;;;;6199787;28;20107;-62
2023/08/02 15:51:00;;;;;;;1.13;0.70;;;;;;;;;;6197706;28;20033;-65
2023/08/02 15:54:01;;;;;;;0.60;0.60;;;;;;;;;;6199064;28;20285;-62
2023/08/02 15:57:01;;;;;;;1.03;1.00;;;;;;;;;;6208843;28;20034;-63
2023/08/02 16:00:01;;;;;;;1.87;0.97;;;;;;;;;;6215075;28;20132;-64
2023/08/02 16:03:02;;;;;;;0.63;0.63;;;;;;;;;;6195896;28;20393;-69
2023/08/02 16:06:03;;;;;;;0.60;0.60;;;;;;;;;;6194771;28;20290;-66
2023/08/02 16:09:03;;;;;;;3.30;0.70;;;;;;;;;;6198726;28;20031;-66
2023/08/02 16:12:03;;;;;;;1.60;0.80;;;;;;;;;;6197697;28;20038;-65
2023/08/02 16:15:04;;;;;;;1.63;0.90;;;;;;;;;;6199612;28;20034;-66
2023/08/02 16:18:06;;;;;;;0.90;0.77;;;;;;;;;;6192415;28;20169;-67
2023/08/02 16:21:06;;;;;;;0.75;0.75;;;;;;;;;;6194546;28;20498;-65
2023/08/02 16:24:07;;;;;;;0.53;0.53;;;;;;;;;;6210962;28;20034;-65
2023/08/02 16:27:07;;;;;;;0.97;0.90;;;;;;;;;;6199954;28;20832;-66
2023/08/02 16:30:07;;;;;;;0.95;0.75;;;;;;;;;;6199705;28;20039;-65
2023/08/02 16:33:08;;;;;;;0.80;0.80;;;;;;;;;;6198447;28;20034;-65
2023/08/02 16:36:08;;;;;;;1.40;0.90;;;;;;;;;;6195373;28;20627;-65
2023/08/02 16:39:08;;;;;;;2.07;0.83;;;;;;;;;;6197222;28;20034;-66
2023/08/02 16:42:10;;;;;;;1.30;0.80;;;;;;;;;;6194344;28;20513;-67
2023/08/02 16:45:10;;;;;;;1.00;0.90;;;;;;;;;;6194507;28;20541;-67
2023/08/02 16:48:10;;;;;;;1.10;1.00;;;;;;;;;;6189805;28;20046;-67
2023/08/02 16:51:10;;;;;;;0.90;0.87;;;;;;;;;;6190717;28;20121;-67
2023/08/02 16:54:10;;;;;;;1.90;0.70;;;;;;;;;;6195673;28;20044;-66
2023/08/02 16:57:11;;;;;;;0.85;0.85;;;;;;;;;;6195249;28;20034;-66
2023/08/02 17:00:11;;;;;;;1.75;1.17;;;;;;;;;;6197908;28;20033;-64
2023/08/02 17:03:11;;;;;;;0.90;0.80;;;;;;;;;;6194439;28;20494;-65
2023/08/02 17:06:12;;;;;;;1.80;0.80;;;;;;;;;;6195841;28;20050;-65
2023/08/02 17:20:14;;;;;;;0.73;0.63;;;;;;;;;;6187524;28;20371;-65
2023/08/02 17:23:14;;;;;;;1.20;1.08;;;;;;;;;;6197534;28;20136;-71
2023/08/02 17:29:52;;;;;;;1.15;0.88;;;;;;;;;;6194693;28;20494;-67
2023/08/02 17:47:23;;;;;;;0.85;0.80;;;;;;;;;;6193006;28;20034;-69
2023/08/02 17:50:24;;;;;;;0.97;0.87;;;;;;;;;;6194763;28;20041;-69
2023/08/02 17:53:24;;;;;;;1.40;0.68;;;;;;;;;;6200716;28;20113;-67
2023/08/02 17:56:25;;;;;;;0.85;0.80;;;;;;;;;;6194502;28;21069;-66
2023/08/02 17:59:25;;;;;;;2.53;2.30;;;;;;;;;;6196052;28;20079;-67
2023/08/02 18:02:25;;;;;;;5.90;5.20;;;;;;;;;;6189037;28;20305;-65
2023/08/02 18:05:26;;;;;;;26.25;23.85;;;;;;;;;;6198744;28;20452;-54
2023/08/02 18:08:26;;;;;;;15.00;13.50;;;;;;;;;;6202613;28;20040;-58
2023/08/02 18:11:26;;;;;;;5.40;4.90;;;;;;;;;;6194842;28;20463;-61
2023/08/02 18:18:04;;;;;;;1.45;1.27;;;;;;;;;;6193098;28;20034;-56
2023/08/02 18:21:04;;;;;;;1.10;1.00;;;;;;;;;;6190171;28;20042;-60
2023/08/02 18:24:05;;;;;;;1.30;1.15;;;;;;;;;;6187526;28;20069;-56
2023/08/02 18:27:05;;;;;;;1.33;0.73;;;;;;;;;;6194429;28;20113;-60
2023/08/02 18:30:06;;;;;;;1.00;0.90;;;;;;;;;;6200205;28;20084;-57
2023/08/02 18:33:06;;;;;;;1.42;1.23;;;;;;;;;;6190769;28;20372;-61
2023/08/02 18:36:13;;;;;;;1.55;0.88;;;;;;;;;;6196377;28;20056;-58
2023/08/02 18:39:13;;;;;;;0.70;0.70;;;;;;;;;;6199223;28;20058;-61